sensor_id;sensor_type;location;lat;lon;timestamp;P1;durP1;ratioP1;P2;durP2;ratioP2
71343;SDS011;59146;43.850;25.948;2023-03-01T00:02:16;37.83;;;21.65;;
71343;SDS011;59146;43.850;25.948;2023-03-01T00:04:42;34.05;;;22.00;;
71343;SDS011;59146;43.850;25.948;2023-03-01T00:07:07;34.55;;;21.88;;
71343;SDS011;59146;43.850;25.948;2023-03-01T00:09:32;36.75;;;22.98;;
71343;SDS011;59146;43.850;25.948;2023-03-01T00:11:58;34.45;;;21.92;;
71343;SDS011;59146;43.850;25.948;2023-03-01T00:14:23;35.70;;;20.67;;
71343;SDS011;59146;43.850;25.948;2023-03-01T00:16:49;35.80;;;22.67;;
71343;SDS011;59146;43.850;25.948;2023-03-01T00:19:16;35.83;;;21.98;;
71343;SDS011;59146;43.850;25.948;2023-03-01T00:21:43;35.53;;;21.88;;
71343;SDS011;59146;43.850;25.948;2023-03-01T00:24:08;37.33;;;21.58;;
71343;SDS011;59146;43.850;25.948;2023-03-01T00:26:35;38.67;;;22.58;;
71343;SDS011;59146;43.850;25.948;2023-03-01T00:29:01;38.78;;;23.23;;
71343;SDS011;59146;43.850;25.948;2023-03-01T00:31:27;39.50;;;23.15;;
71343;SDS011;59146;43.850;25.948;2023-03-01T00:33:56;37.83;;;23.73;;
71343;SDS011;59146;43.850;25.948;2023-03-01T00:36:23;41.13;;;22.95;;
71343;SDS011;59146;43.850;25.948;2023-03-01T00:38:50;40.45;;;23.55;;
71343;SDS011;59146;43.850;25.948;2023-03-01T00:41:16;36.42;;;23.90;;
71343;SDS011;59146;43.850;25.948;2023-03-01T00:43:43;37.53;;;23.17;;
71343;SDS011;59146;43.850;25.948;2023-03-01T00:46:13;40.55;;;23.98;;
71343;SDS011;59146;43.850;25.948;2023-03-01T00:48:41;36.03;;;21.60;;
71343;SDS011;59146;43.850;25.948;2023-03-01T00:51:11;40.80;;;24.83;;
71343;SDS011;59146;43.850;25.948;2023-03-01T00:53:38;39.50;;;25.40;;
71343;SDS011;59146;43.850;25.948;2023-03-01T00:56:04;38.80;;;23.42;;
71343;SDS011;59146;43.850;25.948;2023-03-01T00:58:31;34.10;;;21.38;;
71343;SDS011;59146;43.850;25.948;2023-03-01T01:00:57;40.42;;;24.25;;
71343;SDS011;59146;43.850;25.948;2023-03-01T01:03:23;44.50;;;26.30;;
71343;SDS011;59146;43.850;25.948;2023-03-01T01:05:50;41.10;;;26.25;;
71343;SDS011;59146;43.850;25.948;2023-03-01T01:08:16;40.92;;;25.65;;
71343;SDS011;59146;43.850;25.948;2023-03-01T01:10:43;46.42;;;25.58;;
71343;SDS011;59146;43.850;25.948;2023-03-01T01:13:09;39.03;;;24.35;;
71343;SDS011;59146;43.850;25.948;2023-03-01T01:15:35;43.75;;;26.80;;
71343;SDS011;59146;43.850;25.948;2023-03-01T01:18:00;48.50;;;28.52;;
71343;SDS011;59146;43.850;25.948;2023-03-01T01:20:26;44.13;;;27.70;;
71343;SDS011;59146;43.850;25.948;2023-03-01T01:22:52;49.42;;;29.15;;
71343;SDS011;59146;43.850;25.948;2023-03-01T01:25:17;48.50;;;27.98;;
71343;SDS011;59146;43.850;25.948;2023-03-01T01:27:43;49.88;;;29.05;;
71343;SDS011;59146;43.850;25.948;2023-03-01T01:30:08;52.00;;;29.70;;
71343;SDS011;59146;43.850;25.948;2023-03-01T01:32:34;57.63;;;33.13;;
71343;SDS011;59146;43.850;25.948;2023-03-01T01:34:59;67.35;;;36.00;;
71343;SDS011;59146;43.850;25.948;2023-03-01T01:37:25;63.25;;;31.88;;
71343;SDS011;59146;43.850;25.948;2023-03-01T01:39:56;63.75;;;34.45;;
71343;SDS011;59146;43.850;25.948;2023-03-01T01:42:23;60.35;;;34.25;;
71343;SDS011;59146;43.850;25.948;2023-03-01T01:45:15;71.95;;;37.70;;
71343;SDS011;59146;43.850;25.948;2023-03-01T01:47:52;69.63;;;34.72;;
71343;SDS011;59146;43.850;25.948;2023-03-01T01:50:20;76.40;;;36.28;;
71343;SDS011;59146;43.850;25.948;2023-03-01T01:52:46;85.00;;;39.25;;
71343;SDS011;59146;43.850;25.948;2023-03-01T01:55:16;76.97;;;38.13;;
71343;SDS011;59146;43.850;25.948;2023-03-01T01:57:47;72.82;;;37.50;;
71343;SDS011;59146;43.850;25.948;2023-03-01T02:00:17;70.70;;;37.05;;
71343;SDS011;59146;43.850;25.948;2023-03-01T02:02:46;75.25;;;40.05;;
71343;SDS011;59146;43.850;25.948;2023-03-01T02:08:03;64.60;;;35.58;;
71343;SDS011;59146;43.850;25.948;2023-03-01T02:10:28;64.93;;;34.42;;
71343;SDS011;59146;43.850;25.948;2023-03-01T02:12:58;69.28;;;37.33;;
71343;SDS011;59146;43.850;25.948;2023-03-01T02:15:24;63.10;;;37.05;;
71343;SDS011;59146;43.850;25.948;2023-03-01T02:17:51;77.38;;;38.50;;
71343;SDS011;59146;43.850;25.948;2023-03-01T02:22:55;78.22;;;41.50;;
71343;SDS011;59146;43.850;25.948;2023-03-01T02:30:38;85.97;;;44.78;;
71343;SDS011;59146;43.850;25.948;2023-03-01T02:33:25;80.07;;;43.38;;
71343;SDS011;59146;43.850;25.948;2023-03-01T02:35:51;66.53;;;37.85;;
71343;SDS011;59146;43.850;25.948;2023-03-01T02:38:19;88.18;;;44.88;;
71343;SDS011;59146;43.850;25.948;2023-03-01T02:40:45;137.68;;;80.43;;
71343;SDS011;59146;43.850;25.948;2023-03-01T02:43:12;120.72;;;74.32;;
71343;SDS011;59146;43.850;25.948;2023-03-01T02:45:42;95.88;;;52.17;;
71343;SDS011;59146;43.850;25.948;2023-03-01T02:48:13;107.82;;;62.33;;
71343;SDS011;59146;43.850;25.948;2023-03-01T02:51:24;181.20;;;103.53;;
71343;SDS011;59146;43.850;25.948;2023-03-01T02:53:56;120.80;;;68.15;;
71343;SDS011;59146;43.850;25.948;2023-03-01T02:56:24;93.47;;;52.47;;
71343;SDS011;59146;43.850;25.948;2023-03-01T02:58:51;75.80;;;40.20;;
71343;SDS011;59146;43.850;25.948;2023-03-01T03:01:18;79.97;;;40.75;;
71343;SDS011;59146;43.850;25.948;2023-03-01T03:03:45;68.93;;;35.85;;
71343;SDS011;59146;43.850;25.948;2023-03-01T03:06:10;78.95;;;40.75;;
71343;SDS011;59146;43.850;25.948;2023-03-01T03:08:36;76.78;;;41.47;;
71343;SDS011;59146;43.850;25.948;2023-03-01T03:11:02;79.10;;;41.55;;
71343;SDS011;59146;43.850;25.948;2023-03-01T03:13:27;72.13;;;37.75;;
71343;SDS011;59146;43.850;25.948;2023-03-01T03:15:53;70.72;;;38.78;;
71343;SDS011;59146;43.850;25.948;2023-03-01T03:18:23;73.10;;;40.63;;
71343;SDS011;59146;43.850;25.948;2023-03-01T03:20:51;75.10;;;40.80;;
71343;SDS011;59146;43.850;25.948;2023-03-01T03:23:18;79.10;;;41.33;;
71343;SDS011;59146;43.850;25.948;2023-03-01T03:25:44;75.75;;;41.13;;
71343;SDS011;59146;43.850;25.948;2023-03-01T03:28:09;83.45;;;44.05;;
71343;SDS011;59146;43.850;25.948;2023-03-01T03:30:36;72.65;;;38.92;;
71343;SDS011;59146;43.850;25.948;2023-03-01T03:33:04;80.90;;;41.90;;
71343;SDS011;59146;43.850;25.948;2023-03-01T03:35:31;73.10;;;38.53;;
71343;SDS011;59146;43.850;25.948;2023-03-01T03:37:59;64.40;;;35.72;;
71343;SDS011;59146;43.850;25.948;2023-03-01T03:40:33;76.10;;;40.70;;
71343;SDS011;59146;43.850;25.948;2023-03-01T03:42:58;78.18;;;42.10;;
71343;SDS011;59146;43.850;25.948;2023-03-01T03:45:24;76.72;;;42.88;;
71343;SDS011;59146;43.850;25.948;2023-03-01T03:47:49;74.13;;;39.72;;
71343;SDS011;59146;43.850;25.948;2023-03-01T03:50:15;76.30;;;40.55;;
71343;SDS011;59146;43.850;25.948;2023-03-01T03:52:42;70.05;;;39.10;;
71343;SDS011;59146;43.850;25.948;2023-03-01T03:55:09;70.47;;;36.47;;
71343;SDS011;59146;43.850;25.948;2023-03-01T03:57:39;69.78;;;36.70;;
71343;SDS011;59146;43.850;25.948;2023-03-01T04:00:06;69.63;;;37.42;;
71343;SDS011;59146;43.850;25.948;2023-03-01T04:02:38;69.65;;;37.05;;
71343;SDS011;59146;43.850;25.948;2023-03-01T04:05:05;68.78;;;36.10;;
71343;SDS011;59146;43.850;25.948;2023-03-01T04:07:33;68.70;;;37.40;;
71343;SDS011;59146;43.850;25.948;2023-03-01T04:09:58;66.03;;;37.00;;
71343;SDS011;59146;43.850;25.948;2023-03-01T04:12:24;70.15;;;37.63;;
71343;SDS011;59146;43.850;25.948;2023-03-01T04:14:49;71.07;;;36.47;;
71343;SDS011;59146;43.850;25.948;2023-03-01T04:17:15;75.53;;;38.25;;
71343;SDS011;59146;43.850;25.948;2023-03-01T04:19:40;62.83;;;35.72;;
71343;SDS011;59146;43.850;25.948;2023-03-01T04:22:09;70.75;;;36.17;;
71343;SDS011;59146;43.850;25.948;2023-03-01T04:24:36;76.60;;;38.75;;
71343;SDS011;59146;43.850;25.948;2023-03-01T04:27:01;71.57;;;37.88;;
71343;SDS011;59146;43.850;25.948;2023-03-01T04:29:27;73.10;;;39.15;;
71343;SDS011;59146;43.850;25.948;2023-03-01T04:31:53;67.97;;;38.40;;
71343;SDS011;59146;43.850;25.948;2023-03-01T04:34:18;70.20;;;37.53;;
71343;SDS011;59146;43.850;25.948;2023-03-01T04:36:44;70.88;;;39.00;;
71343;SDS011;59146;43.850;25.948;2023-03-01T04:39:09;69.15;;;34.08;;
71343;SDS011;59146;43.850;25.948;2023-03-01T04:41:38;63.40;;;34.40;;
71343;SDS011;59146;43.850;25.948;2023-03-01T04:44:04;63.63;;;34.47;;
71343;SDS011;59146;43.850;25.948;2023-03-01T04:46:30;60.38;;;35.28;;
71343;SDS011;59146;43.850;25.948;2023-03-01T04:48:55;61.92;;;33.70;;
71343;SDS011;59146;43.850;25.948;2023-03-01T04:51:21;65.20;;;34.10;;
71343;SDS011;59146;43.850;25.948;2023-03-01T04:53:46;66.43;;;36.53;;
71343;SDS011;59146;43.850;25.948;2023-03-01T04:56:12;73.00;;;38.00;;
71343;SDS011;59146;43.850;25.948;2023-03-01T04:58:38;68.40;;;34.78;;
71343;SDS011;59146;43.850;25.948;2023-03-01T05:01:14;64.47;;;38.40;;
71343;SDS011;59146;43.850;25.948;2023-03-01T05:03:45;68.32;;;37.17;;
71343;SDS011;59146;43.850;25.948;2023-03-01T05:06:20;59.25;;;31.95;;
71343;SDS011;59146;43.850;25.948;2023-03-01T05:08:46;64.93;;;34.88;;
71343;SDS011;59146;43.850;25.948;2023-03-01T05:11:11;65.18;;;35.38;;
71343;SDS011;59146;43.850;25.948;2023-03-01T05:13:38;66.82;;;35.22;;
71343;SDS011;59146;43.850;25.948;2023-03-01T05:16:04;63.60;;;34.60;;
71343;SDS011;59146;43.850;25.948;2023-03-01T05:18:31;59.47;;;35.05;;
71343;SDS011;59146;43.850;25.948;2023-03-01T05:21:02;62.20;;;37.05;;
71343;SDS011;59146;43.850;25.948;2023-03-01T05:23:29;63.47;;;35.20;;
71343;SDS011;59146;43.850;25.948;2023-03-01T05:25:59;64.95;;;34.22;;
71343;SDS011;59146;43.850;25.948;2023-03-01T05:30:55;58.20;;;33.95;;
71343;SDS011;59146;43.850;25.948;2023-03-01T05:33:22;61.13;;;33.92;;
71343;SDS011;59146;43.850;25.948;2023-03-01T05:35:48;60.17;;;32.20;;
71343;SDS011;59146;43.850;25.948;2023-03-01T05:38:15;68.60;;;34.97;;
71343;SDS011;59146;43.850;25.948;2023-03-01T05:40:42;68.57;;;37.17;;
71343;SDS011;59146;43.850;25.948;2023-03-01T05:43:09;62.42;;;35.60;;
71343;SDS011;59146;43.850;25.948;2023-03-01T05:45:35;65.55;;;35.65;;
71343;SDS011;59146;43.850;25.948;2023-03-01T05:48:02;69.25;;;36.60;;
71343;SDS011;59146;43.850;25.948;2023-03-01T05:50:31;68.13;;;37.10;;
71343;SDS011;59146;43.850;25.948;2023-03-01T05:55:23;62.38;;;36.95;;
71343;SDS011;59146;43.850;25.948;2023-03-01T05:57:49;65.13;;;36.28;;
71343;SDS011;59146;43.850;25.948;2023-03-01T06:00:15;69.57;;;39.67;;
71343;SDS011;59146;43.850;25.948;2023-03-01T06:02:42;70.68;;;38.67;;
71343;SDS011;59146;43.850;25.948;2023-03-01T06:05:08;66.63;;;36.60;;
71343;SDS011;59146;43.850;25.948;2023-03-01T06:07:35;73.80;;;37.05;;
71343;SDS011;59146;43.850;25.948;2023-03-01T06:10:01;61.38;;;32.83;;
71343;SDS011;59146;43.850;25.948;2023-03-01T06:12:32;68.35;;;36.65;;
71343;SDS011;59146;43.850;25.948;2023-03-01T06:14:58;68.55;;;36.92;;
71343;SDS011;59146;43.850;25.948;2023-03-01T06:17:24;68.13;;;38.92;;
71343;SDS011;59146;43.850;25.948;2023-03-01T06:19:49;69.70;;;38.55;;
71343;SDS011;59146;43.850;25.948;2023-03-01T06:22:15;76.60;;;39.83;;
71343;SDS011;59146;43.850;25.948;2023-03-01T06:24:40;68.45;;;37.20;;
71343;SDS011;59146;43.850;25.948;2023-03-01T06:27:05;70.80;;;38.00;;
71343;SDS011;59146;43.850;25.948;2023-03-01T06:29:31;72.47;;;37.65;;
71343;SDS011;59146;43.850;25.948;2023-03-01T06:31:56;73.32;;;37.15;;
71343;SDS011;59146;43.850;25.948;2023-03-01T06:34:22;74.72;;;37.92;;
71343;SDS011;59146;43.850;25.948;2023-03-01T06:36:47;82.32;;;40.88;;
71343;SDS011;59146;43.850;25.948;2023-03-01T06:39:13;81.70;;;40.55;;
71343;SDS011;59146;43.850;25.948;2023-03-01T06:41:38;71.65;;;37.72;;
71343;SDS011;59146;43.850;25.948;2023-03-01T06:44:03;63.78;;;33.97;;
71343;SDS011;59146;43.850;25.948;2023-03-01T06:46:30;64.93;;;34.92;;
71343;SDS011;59146;43.850;25.948;2023-03-01T06:48:55;63.67;;;35.40;;
71343;SDS011;59146;43.850;25.948;2023-03-01T06:51:21;59.15;;;33.25;;
71343;SDS011;59146;43.850;25.948;2023-03-01T06:53:46;64.18;;;36.45;;
71343;SDS011;59146;43.850;25.948;2023-03-01T06:56:12;55.88;;;31.90;;
71343;SDS011;59146;43.850;25.948;2023-03-01T06:58:37;61.70;;;33.90;;
71343;SDS011;59146;43.850;25.948;2023-03-01T07:01:09;64.88;;;35.40;;
71343;SDS011;59146;43.850;25.948;2023-03-01T07:03:34;67.05;;;32.08;;
71343;SDS011;59146;43.850;25.948;2023-03-01T07:06:00;67.32;;;37.30;;
71343;SDS011;59146;43.850;25.948;2023-03-01T07:08:25;62.72;;;35.85;;
71343;SDS011;59146;43.850;25.948;2023-03-01T07:10:54;65.38;;;33.45;;
71343;SDS011;59146;43.850;25.948;2023-03-01T07:13:21;64.63;;;33.95;;
71343;SDS011;59146;43.850;25.948;2023-03-01T07:15:46;65.50;;;35.05;;
71343;SDS011;59146;43.850;25.948;2023-03-01T07:18:11;65.30;;;36.67;;
71343;SDS011;59146;43.850;25.948;2023-03-01T07:20:37;64.35;;;34.72;;
71343;SDS011;59146;43.850;25.948;2023-03-01T07:23:02;68.03;;;35.28;;
71343;SDS011;59146;43.850;25.948;2023-03-01T07:25:28;63.10;;;35.22;;
71343;SDS011;59146;43.850;25.948;2023-03-01T07:27:53;69.20;;;36.55;;
71343;SDS011;59146;43.850;25.948;2023-03-01T07:30:19;66.07;;;36.58;;
71343;SDS011;59146;43.850;25.948;2023-03-01T07:32:46;64.47;;;35.67;;
71343;SDS011;59146;43.850;25.948;2023-03-01T07:35:11;69.35;;;37.38;;
71343;SDS011;59146;43.850;25.948;2023-03-01T07:37:37;63.55;;;35.00;;
71343;SDS011;59146;43.850;25.948;2023-03-01T07:40:02;64.03;;;36.33;;
71343;SDS011;59146;43.850;25.948;2023-03-01T07:42:28;64.25;;;35.88;;
71343;SDS011;59146;43.850;25.948;2023-03-01T07:44:53;68.63;;;36.58;;
71343;SDS011;59146;43.850;25.948;2023-03-01T07:47:19;67.65;;;39.05;;
71343;SDS011;59146;43.850;25.948;2023-03-01T07:49:44;67.93;;;35.85;;
71343;SDS011;59146;43.850;25.948;2023-03-01T07:52:10;63.92;;;35.85;;
71343;SDS011;59146;43.850;25.948;2023-03-01T07:54:37;79.97;;;40.10;;
71343;SDS011;59146;43.850;25.948;2023-03-01T07:57:02;66.00;;;36.63;;
71343;SDS011;59146;43.850;25.948;2023-03-01T07:59:28;67.20;;;38.10;;
71343;SDS011;59146;43.850;25.948;2023-03-01T08:01:57;65.65;;;38.15;;
71343;SDS011;59146;43.850;25.948;2023-03-01T08:04:23;69.57;;;38.28;;
71343;SDS011;59146;43.850;25.948;2023-03-01T08:06:50;72.45;;;40.00;;
71343;SDS011;59146;43.850;25.948;2023-03-01T08:09:16;61.30;;;36.17;;
71343;SDS011;59146;43.850;25.948;2023-03-01T08:11:42;68.15;;;38.03;;
71343;SDS011;59146;43.850;25.948;2023-03-01T08:14:07;64.30;;;38.47;;
71343;SDS011;59146;43.850;25.948;2023-03-01T08:16:33;61.05;;;36.35;;
71343;SDS011;59146;43.850;25.948;2023-03-01T08:19:03;58.28;;;33.33;;
71343;SDS011;59146;43.850;25.948;2023-03-01T08:21:33;58.65;;;34.22;;
71343;SDS011;59146;43.850;25.948;2023-03-01T08:24:00;62.45;;;35.03;;
71343;SDS011;59146;43.850;25.948;2023-03-01T08:26:26;62.65;;;35.17;;
71343;SDS011;59146;43.850;25.948;2023-03-01T08:28:51;59.15;;;33.38;;
71343;SDS011;59146;43.850;25.948;2023-03-01T08:33:47;61.30;;;36.65;;
71343;SDS011;59146;43.850;25.948;2023-03-01T08:36:16;63.88;;;34.28;;
71343;SDS011;59146;43.850;25.948;2023-03-01T08:38:42;60.25;;;34.60;;
71343;SDS011;59146;43.850;25.948;2023-03-01T08:41:08;58.60;;;33.97;;
71343;SDS011;59146;43.850;25.948;2023-03-01T08:43:33;61.85;;;36.28;;
71343;SDS011;59146;43.850;25.948;2023-03-01T08:45:59;62.70;;;35.47;;
71343;SDS011;59146;43.850;25.948;2023-03-01T08:48:24;56.95;;;33.88;;
71343;SDS011;59146;43.850;25.948;2023-03-01T08:50:52;58.33;;;33.28;;
71343;SDS011;59146;43.850;25.948;2023-03-01T08:53:17;66.55;;;35.10;;
71343;SDS011;59146;43.850;25.948;2023-03-01T08:55:43;55.92;;;32.80;;
71343;SDS011;59146;43.850;25.948;2023-03-01T08:58:08;66.22;;;35.70;;
71343;SDS011;59146;43.850;25.948;2023-03-01T09:00:33;62.38;;;34.50;;
71343;SDS011;59146;43.850;25.948;2023-03-01T09:02:59;66.75;;;36.63;;
71343;SDS011;59146;43.850;25.948;2023-03-01T09:05:25;72.82;;;37.90;;
71343;SDS011;59146;43.850;25.948;2023-03-01T09:07:50;64.57;;;36.25;;
71343;SDS011;59146;43.850;25.948;2023-03-01T09:10:15;65.03;;;35.53;;
71343;SDS011;59146;43.850;25.948;2023-03-01T09:12:41;68.30;;;35.15;;
71343;SDS011;59146;43.850;25.948;2023-03-01T09:15:06;62.85;;;34.03;;
71343;SDS011;59146;43.850;25.948;2023-03-01T09:17:32;60.40;;;35.50;;
71343;SDS011;59146;43.850;25.948;2023-03-01T09:19:58;65.82;;;35.83;;
71343;SDS011;59146;43.850;25.948;2023-03-01T09:22:24;65.78;;;37.13;;
71343;SDS011;59146;43.850;25.948;2023-03-01T09:24:50;73.32;;;37.88;;
71343;SDS011;59146;43.850;25.948;2023-03-01T09:27:15;69.70;;;36.15;;
71343;SDS011;59146;43.850;25.948;2023-03-01T09:29:43;62.53;;;36.38;;
71343;SDS011;59146;43.850;25.948;2023-03-01T09:32:09;65.72;;;34.53;;
71343;SDS011;59146;43.850;25.948;2023-03-01T09:34:34;68.15;;;37.55;;
71343;SDS011;59146;43.850;25.948;2023-03-01T09:37:20;65.18;;;36.65;;
71343;SDS011;59146;43.850;25.948;2023-03-01T09:39:46;68.38;;;38.35;;
71343;SDS011;59146;43.850;25.948;2023-03-01T09:42:11;68.78;;;37.05;;
71343;SDS011;59146;43.850;25.948;2023-03-01T09:49:42;61.72;;;35.15;;
71343;SDS011;59146;43.850;25.948;2023-03-01T09:55:15;74.03;;;37.08;;
71343;SDS011;59146;43.850;25.948;2023-03-01T09:57:50;68.40;;;36.80;;
71343;SDS011;59146;43.850;25.948;2023-03-01T10:00:30;61.10;;;37.13;;
71343;SDS011;59146;43.850;25.948;2023-03-01T10:08:42;57.55;;;34.10;;
71343;SDS011;59146;43.850;25.948;2023-03-01T10:11:33;55.95;;;33.80;;
71343;SDS011;59146;43.850;25.948;2023-03-01T10:14:12;59.45;;;34.35;;
71343;SDS011;59146;43.850;25.948;2023-03-01T10:16:59;53.72;;;31.35;;
71343;SDS011;59146;43.850;25.948;2023-03-01T10:19:45;56.28;;;32.50;;
71343;SDS011;59146;43.850;25.948;2023-03-01T10:24:43;57.40;;;29.75;;
71343;SDS011;59146;43.850;25.948;2023-03-01T10:29:43;53.88;;;28.65;;
71343;SDS011;59146;43.850;25.948;2023-03-01T10:32:15;46.28;;;27.58;;
71343;SDS011;59146;43.850;25.948;2023-03-01T10:34:43;49.08;;;28.90;;
71343;SDS011;59146;43.850;25.948;2023-03-01T10:37:16;50.10;;;26.67;;
71343;SDS011;59146;43.850;25.948;2023-03-01T10:39:57;46.28;;;26.58;;
71343;SDS011;59146;43.850;25.948;2023-03-01T10:42:34;50.45;;;28.25;;
71343;SDS011;59146;43.850;25.948;2023-03-01T10:45:16;50.85;;;30.58;;
71343;SDS011;59146;43.850;25.948;2023-03-01T10:48:11;37.25;;;21.40;;
71343;SDS011;59146;43.850;25.948;2023-03-01T10:50:40;51.13;;;28.92;;
71343;SDS011;59146;43.850;25.948;2023-03-01T10:53:19;42.50;;;24.20;;
71343;SDS011;59146;43.850;25.948;2023-03-01T10:56:05;45.00;;;25.20;;
71343;SDS011;59146;43.850;25.948;2023-03-01T10:58:36;40.22;;;23.85;;
71343;SDS011;59146;43.850;25.948;2023-03-01T11:01:31;41.33;;;23.83;;
71343;SDS011;59146;43.850;25.948;2023-03-01T11:04:12;37.40;;;22.80;;
71343;SDS011;59146;43.850;25.948;2023-03-01T11:06:38;44.90;;;24.30;;
71343;SDS011;59146;43.850;25.948;2023-03-01T11:09:19;35.75;;;21.98;;
71343;SDS011;59146;43.850;25.948;2023-03-01T11:11:45;46.35;;;22.10;;
71343;SDS011;59146;43.850;25.948;2023-03-01T11:14:17;40.97;;;23.02;;
71343;SDS011;59146;43.850;25.948;2023-03-01T11:16:48;43.33;;;23.13;;
71343;SDS011;59146;43.850;25.948;2023-03-01T11:19:23;41.75;;;21.52;;
71343;SDS011;59146;43.850;25.948;2023-03-01T11:24:29;40.92;;;21.00;;
71343;SDS011;59146;43.850;25.948;2023-03-01T11:26:59;40.17;;;21.92;;
71343;SDS011;59146;43.850;25.948;2023-03-01T11:32:06;39.28;;;21.13;;
71343;SDS011;59146;43.850;25.948;2023-03-01T11:37:20;38.38;;;21.63;;
71343;SDS011;59146;43.850;25.948;2023-03-01T11:39:55;43.25;;;23.38;;
71343;SDS011;59146;43.850;25.948;2023-03-01T11:51:05;39.30;;;19.92;;
71343;SDS011;59146;43.850;25.948;2023-03-01T12:13:12;27.17;;;15.63;;
71343;SDS011;59146;43.850;25.948;2023-03-01T12:32:52;47.38;;;22.42;;
71343;SDS011;59146;43.850;25.948;2023-03-01T12:35:41;46.20;;;24.90;;
71343;SDS011;59146;43.850;25.948;2023-03-01T12:49:34;53.15;;;26.55;;
71343;SDS011;59146;43.850;25.948;2023-03-01T12:52:10;44.60;;;24.58;;
71343;SDS011;59146;43.850;25.948;2023-03-01T12:54:41;45.40;;;24.25;;
71343;SDS011;59146;43.850;25.948;2023-03-01T13:05:56;37.33;;;20.08;;
71343;SDS011;59146;43.850;25.948;2023-03-01T13:11:22;35.20;;;21.65;;
71343;SDS011;59146;43.850;25.948;2023-03-01T13:13:48;38.20;;;20.55;;
71343;SDS011;59146;43.850;25.948;2023-03-01T13:19:08;31.90;;;19.08;;
71343;SDS011;59146;43.850;25.948;2023-03-01T13:21:39;32.55;;;17.58;;
71343;SDS011;59146;43.850;25.948;2023-03-01T13:24:22;36.63;;;20.70;;
71343;SDS011;59146;43.850;25.948;2023-03-01T13:27:09;34.83;;;20.17;;
71343;SDS011;59146;43.850;25.948;2023-03-01T13:29:50;38.13;;;20.58;;
71343;SDS011;59146;43.850;25.948;2023-03-01T13:32:34;38.08;;;19.38;;
71343;SDS011;59146;43.850;25.948;2023-03-01T13:35:32;39.47;;;21.67;;
71343;SDS011;59146;43.850;25.948;2023-03-01T13:37:51;40.05;;;23.83;;
71343;SDS011;59146;43.850;25.948;2023-03-01T13:42:46;41.03;;;23.70;;
71343;SDS011;59146;43.850;25.948;2023-03-01T13:47:59;41.08;;;23.05;;
71343;SDS011;59146;43.850;25.948;2023-03-01T13:50:28;42.72;;;24.55;;
71343;SDS011;59146;43.850;25.948;2023-03-01T13:53:03;41.58;;;23.15;;
71343;SDS011;59146;43.850;25.948;2023-03-01T13:58:26;34.85;;;22.17;;
71343;SDS011;59146;43.850;25.948;2023-03-01T14:00:55;41.08;;;24.33;;
71343;SDS011;59146;43.850;25.948;2023-03-01T14:03:25;39.05;;;24.15;;
71343;SDS011;59146;43.850;25.948;2023-03-01T14:08:34;45.70;;;24.02;;
71343;SDS011;59146;43.850;25.948;2023-03-01T14:22:00;47.35;;;24.63;;
71343;SDS011;59146;43.850;25.948;2023-03-01T14:24:47;41.80;;;24.73;;
71343;SDS011;59146;43.850;25.948;2023-03-01T14:27:14;41.05;;;22.55;;
71343;SDS011;59146;43.850;25.948;2023-03-01T14:29:41;37.75;;;24.58;;
71343;SDS011;59146;43.850;25.948;2023-03-01T14:32:11;40.30;;;24.38;;
71343;SDS011;59146;43.850;25.948;2023-03-01T14:34:48;48.45;;;25.05;;
71343;SDS011;59146;43.850;25.948;2023-03-01T14:37:25;40.88;;;24.02;;
71343;SDS011;59146;43.850;25.948;2023-03-01T14:39:51;36.67;;;22.85;;
71343;SDS011;59146;43.850;25.948;2023-03-01T14:42:17;45.58;;;24.70;;
71343;SDS011;59146;43.850;25.948;2023-03-01T14:44:46;41.42;;;24.75;;
71343;SDS011;59146;43.850;25.948;2023-03-01T14:47:15;48.67;;;23.27;;
71343;SDS011;59146;43.850;25.948;2023-03-01T14:49:47;42.10;;;23.73;;
71343;SDS011;59146;43.850;25.948;2023-03-01T14:52:21;41.15;;;25.02;;
71343;SDS011;59146;43.850;25.948;2023-03-01T14:54:55;45.67;;;25.85;;
71343;SDS011;59146;43.850;25.948;2023-03-01T14:57:22;39.15;;;24.90;;
71343;SDS011;59146;43.850;25.948;2023-03-01T14:59:49;40.45;;;25.70;;
71343;SDS011;59146;43.850;25.948;2023-03-01T15:02:19;42.23;;;25.73;;
71343;SDS011;59146;43.850;25.948;2023-03-01T15:04:48;39.70;;;25.05;;
71343;SDS011;59146;43.850;25.948;2023-03-01T15:07:16;46.58;;;25.42;;
71343;SDS011;59146;43.850;25.948;2023-03-01T15:09:42;38.20;;;24.17;;
71343;SDS011;59146;43.850;25.948;2023-03-01T15:14:52;40.85;;;23.50;;
71343;SDS011;59146;43.850;25.948;2023-03-01T15:19:59;39.17;;;22.33;;
71343;SDS011;59146;43.850;25.948;2023-03-01T15:22:27;45.75;;;23.33;;
71343;SDS011;59146;43.850;25.948;2023-03-01T15:24:53;46.65;;;24.00;;
71343;SDS011;59146;43.850;25.948;2023-03-01T15:27:20;39.95;;;22.05;;
71343;SDS011;59146;43.850;25.948;2023-03-01T15:29:48;44.08;;;24.63;;
71343;SDS011;59146;43.850;25.948;2023-03-01T15:32:29;54.13;;;25.83;;
71343;SDS011;59146;43.850;25.948;2023-03-01T15:34:56;47.80;;;27.05;;
71343;SDS011;59146;43.850;25.948;2023-03-01T15:42:49;44.78;;;25.70;;
71343;SDS011;59146;43.850;25.948;2023-03-01T15:47:43;47.63;;;26.73;;
71343;SDS011;59146;43.850;25.948;2023-03-01T15:50:16;53.58;;;25.55;;
71343;SDS011;59146;43.850;25.948;2023-03-01T15:52:45;41.45;;;25.42;;
71343;SDS011;59146;43.850;25.948;2023-03-01T15:55:18;52.97;;;26.63;;
71343;SDS011;59146;43.850;25.948;2023-03-01T15:57:48;46.35;;;26.27;;
71343;SDS011;59146;43.850;25.948;2023-03-01T16:00:15;44.08;;;27.10;;
71343;SDS011;59146;43.850;25.948;2023-03-01T16:02:42;49.25;;;27.38;;
71343;SDS011;59146;43.850;25.948;2023-03-01T16:05:17;42.25;;;25.17;;
71343;SDS011;59146;43.850;25.948;2023-03-01T16:07:46;39.25;;;24.05;;
71343;SDS011;59146;43.850;25.948;2023-03-01T16:10:11;39.63;;;25.80;;
71343;SDS011;59146;43.850;25.948;2023-03-01T16:12:37;41.58;;;24.20;;
71343;SDS011;59146;43.850;25.948;2023-03-01T16:15:04;47.28;;;25.20;;
71343;SDS011;59146;43.850;25.948;2023-03-01T16:17:37;41.63;;;25.85;;
71343;SDS011;59146;43.850;25.948;2023-03-01T16:20:02;50.13;;;25.42;;
71343;SDS011;59146;43.850;25.948;2023-03-01T16:22:30;44.63;;;25.58;;
71343;SDS011;59146;43.850;25.948;2023-03-01T16:24:55;44.45;;;25.42;;
71343;SDS011;59146;43.850;25.948;2023-03-01T16:27:21;44.13;;;25.80;;
71343;SDS011;59146;43.850;25.948;2023-03-01T16:29:46;44.38;;;27.38;;
71343;SDS011;59146;43.850;25.948;2023-03-01T16:32:12;47.60;;;27.10;;
71343;SDS011;59146;43.850;25.948;2023-03-01T16:34:37;39.80;;;23.58;;
71343;SDS011;59146;43.850;25.948;2023-03-01T16:37:02;44.97;;;25.77;;
71343;SDS011;59146;43.850;25.948;2023-03-01T16:39:28;39.92;;;26.65;;
71343;SDS011;59146;43.850;25.948;2023-03-01T16:41:53;42.90;;;24.92;;
71343;SDS011;59146;43.850;25.948;2023-03-01T16:44:19;48.42;;;26.52;;
71343;SDS011;59146;43.850;25.948;2023-03-01T16:46:44;47.33;;;28.65;;
71343;SDS011;59146;43.850;25.948;2023-03-01T16:49:10;45.85;;;27.35;;